createdAt,value
2018-02-12T00:01:59.550Z,12.20
2018-02-12T00:04:26.983Z,9.70
2018-02-12T00:06:55.174Z,10.10
2018-02-12T00:09:23.434Z,12.00
2018-02-12T00:11:50.865Z,11.47
2018-02-12T00:14:19.106Z,11.63
2018-02-12T00:16:46.534Z,15.40
2018-02-12T00:19:14.721Z,8.30
2018-02-12T00:21:42.157Z,9.27
2018-02-12T00:24:09.578Z,9.57
2018-02-12T00:26:37.015Z,12.07
2018-02-12T00:29:04.448Z,17.03
2018-02-12T00:31:32.647Z,9.73
2018-02-12T00:34:00.850Z,11.73
2018-02-12T00:36:28.290Z,14.93
2018-02-12T00:38:55.710Z,9.93
2018-02-12T00:41:23.910Z,9.40
2018-02-12T00:43:52.107Z,9.93
2018-02-12T00:46:20.311Z,12.40
2018-02-12T00:48:48.502Z,10.33
2018-02-12T00:51:16.698Z,9.87
2018-02-12T00:53:44.129Z,12.67
2018-02-12T00:56:11.562Z,10.07
2018-02-12T00:58:39.758Z,11.67
2018-02-12T01:01:07.963Z,9.33
2018-02-12T01:03:36.151Z,9.90
2018-02-12T01:06:04.396Z,8.17
2018-02-12T01:08:32.537Z,11.00
2018-02-12T01:10:59.975Z,9.83
2018-02-12T01:13:27.406Z,8.57
2018-02-12T01:15:55.607Z,9.87
2018-02-12T01:18:23.806Z,11.37
2018-02-12T01:20:51.998Z,10.47
2018-02-12T01:23:19.425Z,8.87
2018-02-12T01:25:46.857Z,11.27
2018-02-12T01:28:14.294Z,11.60
2018-02-12T01:30:41.721Z,18.80
2018-02-12T01:33:09.155Z,9.27
2018-02-12T01:35:36.582Z,11.43
2018-02-12T01:38:04.782Z,9.87
2018-02-12T01:40:32.998Z,9.10
2018-02-12T01:43:00.425Z,9.73
2018-02-12T01:45:27.860Z,6.47
2018-02-12T01:47:55.286Z,6.83
2018-02-12T01:50:22.720Z,10.50
2018-02-12T01:52:50.146Z,9.33
2018-02-12T01:55:17.576Z,9.30
2018-02-12T01:57:45.006Z,7.03
2018-02-12T02:00:12.431Z,10.23
2018-02-12T02:02:40.639Z,5.87
2018-02-12T02:05:08.067Z,10.07
2018-02-12T02:07:35.507Z,10.27
2018-02-12T02:10:02.936Z,8.73
2018-02-12T02:12:30.414Z,6.43
2018-02-12T02:14:57.842Z,11.93
2018-02-12T02:17:25.270Z,7.60
2018-02-12T02:19:52.702Z,7.43
2018-02-12T02:22:20.130Z,8.73
2018-02-12T02:24:47.554Z,7.17
2018-02-12T02:27:14.978Z,8.20
2018-02-12T02:29:42.419Z,10.93
2018-02-12T02:32:09.847Z,7.40
2018-02-12T02:34:37.277Z,9.10
2018-02-12T02:37:04.708Z,15.50
2018-02-12T02:39:32.138Z,8.50
2018-02-12T02:41:59.567Z,9.13
2018-02-12T02:44:27.003Z,6.47
2018-02-12T02:46:54.439Z,6.70
2018-02-12T02:49:21.871Z,7.83
2018-02-12T02:51:49.299Z,7.20
2018-02-12T02:54:16.739Z,12.63
2018-02-12T02:56:44.172Z,10.83
2018-02-12T02:59:11.605Z,9.90
2018-02-12T03:01:39.039Z,7.27
2018-02-12T03:04:06.482Z,11.40
2018-02-12T03:06:33.903Z,6.60
2018-02-12T03:09:02.094Z,7.60
2018-02-12T03:11:30.298Z,9.20
2018-02-12T03:13:58.491Z,7.70
2018-02-12T03:16:26.690Z,8.73
2018-02-12T03:18:54.883Z,9.50
2018-02-12T03:21:22.333Z,7.13
2018-02-12T03:23:49.761Z,8.50
2018-02-12T03:26:17.955Z,6.77
2018-02-12T03:28:46.147Z,7.43
2018-02-12T03:31:14.351Z,8.37
2018-02-12T03:33:42.551Z,8.50
2018-02-12T03:36:10.758Z,13.00
2018-02-12T03:38:38.187Z,8.30
2018-02-12T03:41:05.623Z,8.70
2018-02-12T03:43:33.079Z,11.53
2018-02-12T03:46:01.412Z,6.60
2018-02-12T03:48:28.847Z,7.30
2018-02-12T03:50:56.278Z,6.00
2018-02-12T03:53:23.707Z,5.87
2018-02-12T03:55:51.142Z,10.57
2018-02-12T03:58:18.579Z,13.33
2018-02-12T04:00:46.023Z,5.83
2018-02-12T04:03:13.447Z,5.53
2018-02-12T04:05:41.694Z,6.03
2018-02-12T04:08:09.123Z,8.30
2018-02-12T04:10:36.547Z,4.63
2018-02-12T04:13:03.979Z,3.00
2018-02-12T04:15:32.175Z,9.57
2018-02-12T04:17:59.616Z,2.93
2018-02-12T04:20:27.043Z,4.17
2018-02-12T04:22:55.242Z,2.43
2018-02-12T04:25:23.435Z,3.20
2018-02-12T04:27:50.871Z,2.37
2018-02-12T04:30:18.298Z,2.47
2018-02-12T04:32:45.733Z,2.30
2018-02-12T04:35:13.179Z,2.20
2018-02-12T04:37:40.619Z,2.40
2018-02-12T04:40:08.047Z,3.83
2018-02-12T04:42:35.483Z,2.93
2018-02-12T04:45:02.915Z,2.83
2018-02-12T04:47:30.344Z,6.03
2018-02-12T04:49:57.767Z,3.23
2018-02-12T04:52:25.202Z,7.67
2018-02-12T04:54:52.631Z,4.57
2018-02-12T04:57:20.066Z,9.87
2018-02-12T04:59:47.490Z,5.17
2018-02-12T05:02:14.975Z,4.27
2018-02-12T05:04:42.386Z,3.47
2018-02-12T05:07:09.862Z,4.10
2018-02-12T05:09:37.303Z,11.53
2018-02-12T05:12:04.731Z,3.63
2018-02-12T05:14:32.172Z,4.23
2018-02-12T05:16:59.595Z,4.20
2018-02-12T05:19:27.027Z,3.37
2018-02-12T05:21:54.456Z,3.50
2018-02-12T05:24:21.894Z,3.00
2018-02-12T05:26:49.319Z,7.00
2018-02-12T05:29:16.755Z,3.10
2018-02-12T05:31:44.192Z,2.80
2018-02-12T05:34:11.623Z,2.80
2018-02-12T05:36:39.050Z,4.60
2018-02-12T05:39:06.486Z,5.90
2018-02-12T05:41:33.914Z,4.87
2018-02-12T05:44:01.351Z,2.93
2018-02-12T05:46:28.778Z,3.53
2018-02-12T05:48:56.211Z,4.60
2018-02-12T05:51:23.638Z,4.43
2018-02-12T05:53:51.075Z,4.17
2018-02-12T05:56:18.503Z,3.00
2018-02-12T05:58:46.743Z,2.77
2018-02-12T06:01:14.170Z,2.80
2018-02-12T06:03:41.595Z,2.50
2018-02-12T06:06:09.026Z,2.80
2018-02-12T06:08:36.450Z,2.53
2018-02-12T06:11:03.886Z,4.07
2018-02-12T06:13:31.343Z,3.03
2018-02-12T06:15:58.758Z,4.00
2018-02-12T06:18:26.191Z,6.43
2018-02-12T06:20:53.623Z,2.00
2018-02-12T06:23:21.054Z,2.23
2018-02-12T06:25:48.482Z,3.00
2018-02-12T06:28:15.910Z,3.40
2018-02-12T06:30:43.347Z,7.93
2018-02-12T06:33:11.547Z,1.90
2018-02-12T06:35:39.747Z,4.00
2018-02-12T06:38:07.939Z,1.90
2018-02-12T06:40:36.143Z,3.73
2018-02-12T06:43:04.335Z,2.80
2018-02-12T06:45:32.541Z,3.87
2018-02-12T06:48:00.730Z,3.83
2018-02-12T06:50:28.938Z,1.53
2018-02-12T06:52:57.135Z,1.50
2018-02-12T06:55:25.339Z,1.53
2018-02-12T06:57:53.531Z,1.30
2018-02-12T07:00:21.722Z,1.87
2018-02-12T07:02:49.155Z,2.10
2018-02-12T07:05:16.588Z,2.40
2018-02-12T07:07:44.787Z,1.87
2018-02-12T07:10:12.983Z,1.80
2018-02-12T07:12:40.415Z,4.70
2018-02-12T07:15:07.847Z,4.20
2018-02-12T07:17:36.054Z,7.37
2018-02-12T07:20:04.251Z,3.23
2018-02-12T07:22:32.455Z,1.80
2018-02-12T07:25:00.655Z,1.97
2018-02-12T07:27:28.094Z,1.57
2018-02-12T07:29:55.518Z,5.97
2018-02-12T07:32:22.954Z,6.93
2018-02-12T07:34:50.384Z,1.90
2018-02-12T07:37:17.824Z,2.27
2018-02-12T07:39:46.015Z,4.93
2018-02-12T07:42:13.455Z,2.53
2018-02-12T07:44:40.882Z,4.50
2018-02-12T07:47:08.318Z,2.70
2018-02-12T07:49:35.747Z,3.13
2018-02-12T07:52:03.969Z,4.87
2018-02-12T07:54:32.143Z,2.43
2018-02-12T07:57:00.394Z,4.03
2018-02-12T07:59:27.818Z,3.60
2018-02-12T08:01:55.243Z,8.43
2018-02-12T08:04:22.681Z,2.67
2018-02-12T08:06:50.110Z,2.40
2018-02-12T08:09:17.555Z,6.50
2018-02-12T08:11:44.975Z,2.90
2018-02-12T08:14:12.410Z,2.63
2018-02-12T08:16:39.839Z,2.77
2018-02-12T08:19:07.274Z,6.20
2018-02-12T08:21:34.724Z,2.73
2018-02-12T08:24:02.159Z,4.47
2018-02-12T08:26:29.587Z,6.97
2018-02-12T08:28:57.030Z,4.93
2018-02-12T08:31:25.223Z,2.77
2018-02-12T08:33:52.659Z,4.40
2018-02-12T08:36:20.086Z,4.50
2018-02-12T08:38:47.523Z,4.93
2018-02-12T08:41:14.950Z,4.50
2018-02-12T08:43:42.392Z,1.90
2018-02-12T08:46:09.815Z,3.53
2018-02-12T08:48:37.247Z,3.60
2018-02-12T08:51:04.703Z,2.57
2018-02-12T08:53:32.907Z,4.53
2018-02-12T08:56:01.108Z,6.57
2018-02-12T08:58:29.358Z,2.40
2018-02-12T09:00:57.550Z,1.50
2018-02-12T09:03:24.979Z,1.53
2018-02-12T09:05:53.179Z,2.10
2018-02-12T09:08:21.381Z,1.67
2018-02-12T09:10:49.593Z,2.83
2018-02-12T09:13:17.015Z,15.90
2018-02-12T09:15:44.448Z,6.53
2018-02-12T09:18:11.871Z,1.80
2018-02-12T09:20:39.304Z,1.30
2018-02-12T09:23:07.495Z,3.90
2018-02-12T09:25:35.694Z,1.90
2018-02-12T09:28:03.975Z,9.13
2018-02-12T09:30:31.409Z,2.43
2018-02-12T09:32:58.827Z,1.90
2018-02-12T09:35:26.263Z,1.40
2018-02-12T09:37:53.687Z,1.20
2018-02-12T09:40:21.166Z,2.53
2018-02-12T09:42:48.591Z,1.90
2018-02-12T09:45:16.028Z,5.17
2018-02-12T09:47:43.462Z,1.10
2018-02-12T09:50:10.890Z,1.47
2018-02-12T09:52:38.318Z,1.23
2018-02-12T09:55:05.750Z,1.10
2018-02-12T09:57:33.183Z,1.50
2018-02-12T10:00:00.624Z,1.33
2018-02-12T10:02:28.059Z,1.47
2018-02-12T10:04:55.494Z,2.00
2018-02-12T10:07:23.744Z,1.83
2018-02-12T10:09:51.166Z,2.77
2018-02-12T10:12:18.592Z,1.50
2018-02-12T10:14:46.023Z,1.20
2018-02-12T10:17:13.446Z,1.67
2018-02-12T10:19:40.890Z,3.40
2018-02-12T10:22:08.318Z,1.03
2018-02-12T10:24:35.747Z,1.20
2018-02-12T10:27:03.980Z,2.03
2018-02-12T10:29:32.160Z,1.10
2018-02-12T10:32:00.362Z,1.53
2018-02-12T10:34:28.561Z,1.40
2018-02-12T10:36:56.758Z,1.90
2018-02-12T10:39:25.130Z,2.23
2018-02-12T10:41:52.576Z,1.30
2018-02-12T10:44:19.999Z,3.07
2018-02-12T10:46:47.434Z,4.80
2018-02-12T10:49:14.867Z,1.57
2018-02-12T10:51:42.303Z,1.77
2018-02-12T10:54:09.731Z,1.30
2018-02-12T10:56:37.163Z,3.57
2018-02-12T10:59:04.636Z,1.27
2018-02-12T11:01:32.791Z,2.40
2018-02-12T11:04:00.989Z,7.50
2018-02-12T11:06:29.191Z,1.13
2018-02-12T11:08:57.395Z,1.77
2018-02-12T11:11:25.587Z,5.83
2018-02-12T11:13:53.791Z,1.63
2018-02-12T11:16:21.998Z,5.30
2018-02-12T11:18:49.437Z,1.40
2018-02-12T11:21:16.863Z,1.20
2018-02-12T11:23:45.059Z,2.50
2018-02-12T11:26:13.257Z,6.47
2018-02-12T11:28:41.459Z,1.83
2018-02-12T11:31:08.887Z,2.43
2018-02-12T11:33:36.319Z,9.00
2018-02-12T11:36:03.779Z,1.80
2018-02-12T11:38:31.215Z,2.10
2018-02-12T11:40:58.648Z,2.50
2018-02-12T11:43:26.852Z,4.20
2018-02-12T11:45:55.050Z,7.80
2018-02-12T11:48:23.252Z,9.43
2018-02-12T11:50:51.442Z,2.10
2018-02-12T11:53:18.875Z,1.60
2018-02-12T11:55:46.298Z,4.07
2018-02-12T11:58:13.731Z,2.23
2018-02-12T12:00:41.163Z,2.57
2018-02-12T12:03:08.607Z,3.03
2018-02-12T12:05:36.023Z,3.77
2018-02-12T12:08:03.467Z,4.50
2018-02-12T12:10:30.904Z,2.80
2018-02-12T12:12:58.323Z,3.53
2018-02-12T12:15:25.764Z,7.10
2018-02-12T12:17:53.191Z,5.93
2018-02-12T12:20:20.624Z,3.83
2018-02-12T12:22:49.560Z,4.27
2018-02-12T12:25:17.760Z,5.33
2018-02-12T12:27:45.951Z,7.23
2018-02-12T12:30:14.189Z,2.33
2018-02-12T12:32:42.351Z,2.93
2018-02-12T12:35:10.550Z,3.43
2018-02-12T12:37:38.743Z,6.40
2018-02-12T12:40:06.943Z,4.70
2018-02-12T12:42:35.134Z,4.13
2018-02-12T12:45:02.572Z,4.23
2018-02-12T12:47:29.999Z,4.57
2018-02-12T12:49:58.210Z,10.80
2018-02-12T12:52:26.402Z,12.87
2018-02-12T12:54:54.603Z,2.20
2018-02-12T12:57:22.798Z,5.10
2018-02-12T12:59:51.007Z,2.70
2018-02-12T13:02:19.192Z,5.20
2018-02-12T13:04:47.395Z,5.10
2018-02-12T13:07:15.595Z,3.90
2018-02-12T13:09:43.787Z,2.23
2018-02-12T13:12:11.983Z,2.87
2018-02-12T13:14:40.188Z,2.83
2018-02-12T13:17:08.395Z,9.57
2018-02-12T13:19:36.600Z,4.73
2018-02-12T13:22:04.022Z,1.90
2018-02-12T13:24:31.458Z,4.20
2018-02-12T13:26:58.890Z,1.63
2018-02-12T13:29:27.091Z,2.20
2018-02-12T13:31:54.524Z,1.90
2018-02-12T13:34:21.955Z,1.70
2018-02-12T13:36:49.382Z,4.77
2018-02-12T13:39:16.815Z,1.90
2018-02-12T13:41:44.258Z,1.97
2018-02-12T13:44:11.699Z,3.33
2018-02-12T13:46:39.123Z,3.60
2018-02-12T13:49:06.906Z,5.70
2018-02-12T13:51:34.342Z,2.50
2018-02-12T13:54:02.587Z,1.60
2018-02-12T13:56:30.788Z,3.23
2018-02-12T13:58:58.980Z,2.07
2018-02-12T14:01:26.444Z,1.43
2018-02-12T14:03:53.872Z,2.03
2018-02-12T14:06:22.071Z,2.60
2018-02-12T14:08:50.266Z,1.20
2018-02-12T14:11:18.466Z,1.30
2018-02-12T14:13:46.660Z,3.30
2018-02-12T14:16:15.535Z,2.00
2018-02-12T14:18:42.984Z,3.23
2018-02-12T14:21:11.168Z,3.60
2018-02-12T14:23:39.364Z,2.50
2018-02-12T14:26:07.568Z,7.03
2018-02-12T14:28:35.759Z,1.67
2018-02-12T14:31:03.963Z,2.37
2018-02-12T14:33:32.155Z,4.47
2018-02-12T14:36:00.367Z,4.47
2018-02-12T14:38:28.571Z,3.10
2018-02-12T14:40:56.801Z,7.53
2018-02-12T14:43:24.241Z,3.20
2018-02-12T14:45:52.442Z,5.70
2018-02-12T14:48:20.643Z,15.30
2018-02-12T14:50:48.847Z,2.60
2018-02-12T14:53:17.039Z,1.60
2018-02-12T14:55:44.479Z,1.60
2018-02-12T14:58:11.907Z,3.47
2018-02-12T15:00:39.347Z,2.00
2018-02-12T15:03:06.775Z,2.60
2018-02-12T15:05:34.215Z,1.77
2018-02-12T15:08:01.643Z,2.20
2018-02-12T15:10:29.087Z,4.83
2018-02-12T15:12:57.271Z,7.97
2018-02-12T15:15:25.473Z,2.30
2018-02-12T15:17:53.666Z,3.47
2018-02-12T15:20:21.108Z,1.60
2018-02-12T15:22:48.530Z,4.63
2018-02-12T15:25:15.959Z,4.07
2018-02-12T15:27:43.395Z,5.90
2018-02-12T15:30:10.826Z,14.13
2018-02-12T15:32:38.263Z,26.70
2018-02-12T15:35:05.699Z,14.67
2018-02-12T15:37:33.130Z,10.87
2018-02-12T15:40:00.572Z,4.83
2018-02-12T15:42:27.996Z,2.13
2018-02-12T15:44:55.423Z,5.20
2018-02-12T15:47:22.858Z,6.60
2018-02-12T15:49:50.283Z,6.23
2018-02-12T15:52:17.715Z,1.33
2018-02-12T15:54:45.149Z,2.20
2018-02-12T15:57:12.583Z,2.10
2018-02-12T15:59:40.012Z,4.13
2018-02-12T16:02:07.447Z,1.60
2018-02-12T16:04:39.751Z,3.13
2018-02-12T16:07:07.182Z,2.53
2018-02-12T16:09:34.611Z,2.57
2018-02-12T16:12:02.043Z,14.70
2018-02-12T16:14:29.470Z,24.17
2018-02-12T16:16:56.907Z,4.10
2018-02-12T16:19:24.336Z,2.67
2018-02-12T16:21:51.772Z,10.00
2018-02-12T16:24:19.281Z,11.23
2018-02-12T16:26:46.643Z,12.30
2018-02-12T16:29:14.094Z,15.20
2018-02-12T16:31:41.527Z,17.07
2018-02-12T16:34:08.955Z,9.60
2018-02-12T16:36:36.425Z,12.80
2018-02-12T16:39:03.831Z,48.37
2018-02-12T16:41:31.270Z,60.53
2018-02-12T16:43:59.470Z,6.13
2018-02-12T16:46:27.671Z,3.00
2018-02-12T16:48:55.863Z,1.70
2018-02-12T16:51:24.067Z,7.80
2018-02-12T16:53:52.262Z,2.65
2018-02-12T16:56:19.777Z,2.55
2018-02-12T16:58:47.955Z,1.92
2018-02-12T17:01:16.199Z,3.20
2018-02-12T17:03:43.659Z,10.18
2018-02-12T17:06:11.092Z,9.60
2018-02-12T17:08:38.526Z,6.07
2018-02-12T17:11:05.968Z,8.38
2018-02-12T17:13:33.403Z,3.97
2018-02-12T17:16:00.840Z,5.60
2018-02-12T17:18:28.282Z,7.53
2018-02-12T17:20:55.711Z,5.12
2018-02-12T17:23:23.155Z,4.85
2018-02-12T17:25:50.583Z,9.20
2018-02-12T17:28:18.782Z,2.70
2018-02-12T17:30:46.974Z,3.60
2018-02-12T17:33:15.176Z,5.90
2018-02-12T17:35:43.388Z,5.05
2018-02-12T17:38:10.819Z,4.43
2018-02-12T17:40:38.250Z,5.87
2018-02-12T17:43:05.695Z,3.60
2018-02-12T17:45:33.132Z,2.55
2018-02-12T17:48:00.572Z,5.25
2018-02-12T17:50:28.775Z,4.93
2018-02-12T17:52:56.980Z,9.15
2018-02-12T17:55:25.180Z,7.50
2018-02-12T17:57:52.615Z,6.37
2018-02-12T18:00:20.086Z,12.50
2018-02-12T18:02:47.524Z,4.05
2018-02-12T18:05:15.723Z,4.57
2018-02-12T18:07:43.158Z,2.33
2018-02-12T18:10:10.594Z,3.33
2018-02-12T18:12:38.050Z,6.15
2018-02-12T18:15:05.464Z,6.80
2018-02-12T18:17:32.893Z,3.00
2018-02-12T18:20:00.338Z,4.57
2018-02-12T18:22:27.774Z,6.22
2018-02-12T18:24:55.975Z,2.93
2018-02-12T18:27:24.171Z,6.35
2018-02-12T18:29:52.370Z,5.00
2018-02-12T18:32:20.567Z,6.68
2018-02-12T18:34:48.782Z,8.48
2018-02-12T18:37:16.207Z,7.30
2018-02-12T18:39:43.642Z,7.78
2018-02-12T18:42:11.070Z,15.95
2018-02-12T18:44:38.515Z,17.08
2018-02-12T18:47:05.955Z,11.02
2018-02-12T18:49:34.162Z,11.75
2018-02-12T18:52:02.373Z,18.62
2018-02-12T18:54:29.808Z,9.23
2018-02-12T18:56:57.251Z,13.65
2018-02-12T18:59:24.705Z,15.40
2018-02-12T19:01:52.903Z,21.40
2018-02-12T19:04:20.355Z,14.55
2018-02-12T19:06:47.787Z,8.10
2018-02-12T19:09:15.219Z,8.50
2018-02-12T19:11:42.661Z,5.40
2018-02-12T19:14:10.096Z,6.15
2018-02-12T19:16:38.303Z,5.07
2018-02-12T19:19:06.502Z,17.60
2018-02-12T19:21:34.702Z,5.47
2018-02-12T19:24:02.914Z,4.93
2018-02-12T19:26:30.359Z,8.07
2018-02-12T19:28:57.787Z,3.70
2018-02-12T19:31:25.234Z,5.22
2018-02-12T19:33:52.663Z,5.75
2018-02-12T19:36:20.109Z,45.88
2018-02-12T19:38:47.543Z,50.60
2018-02-12T19:41:14.983Z,28.12
2018-02-12T19:43:42.422Z,16.55
2018-02-12T19:46:09.862Z,25.02
2018-02-12T19:48:37.341Z,32.38
2018-02-12T19:51:04.763Z,18.27
2018-02-12T19:53:32.191Z,6.80
2018-02-12T19:55:59.643Z,4.90
2018-02-12T19:58:27.840Z,5.40
2018-02-12T20:00:55.275Z,4.90
2018-02-12T20:03:22.709Z,5.82
2018-02-12T20:05:50.919Z,6.62
2018-02-12T20:08:18.347Z,6.78
2018-02-12T20:10:45.782Z,7.60
2018-02-12T20:13:13.207Z,8.40
2018-02-12T20:15:40.668Z,7.85
2018-02-12T20:18:08.088Z,11.30
2018-02-12T20:20:35.523Z,8.10
2018-02-12T20:23:02.951Z,8.15
2018-02-12T20:25:31.155Z,4.30
2018-02-12T20:27:59.351Z,3.47
2018-02-12T20:30:26.783Z,5.55
2018-02-12T20:32:54.221Z,3.17
2018-02-12T20:35:21.647Z,4.00
2018-02-12T20:37:49.080Z,2.77
2018-02-12T20:40:16.515Z,3.07
2018-02-12T20:42:43.951Z,2.50
2018-02-12T20:45:11.387Z,4.00
2018-02-12T20:47:38.819Z,5.80
2018-02-12T20:50:06.259Z,4.57
2018-02-12T20:52:34.454Z,3.33
2018-02-12T20:55:02.665Z,2.47
2018-02-12T20:57:30.859Z,3.57
2018-02-12T20:59:59.059Z,2.93
2018-02-12T21:02:27.259Z,2.63
2018-02-12T21:04:55.463Z,7.03
2018-02-12T21:07:23.658Z,4.47
2018-02-12T21:09:51.879Z,3.73
2018-02-12T21:12:20.062Z,4.10
2018-02-12T21:14:48.286Z,3.57
2018-02-12T21:17:16.462Z,3.73
2018-02-12T21:19:44.669Z,5.07
2018-02-12T21:22:12.863Z,2.77
2018-02-12T21:24:41.122Z,4.40
2018-02-12T21:27:08.551Z,3.23
2018-02-12T21:29:36.747Z,12.93
2018-02-12T21:32:04.956Z,4.20
2018-02-12T21:34:33.159Z,3.60
2018-02-12T21:37:00.595Z,6.27
2018-02-12T21:39:28.039Z,5.80
2018-02-12T21:41:55.471Z,5.03
2018-02-12T21:44:22.903Z,6.47
2018-02-12T21:46:50.345Z,8.07
2018-02-12T21:49:18.543Z,5.57
2018-02-12T21:51:46.764Z,6.80
2018-02-12T21:54:14.197Z,6.53
2018-02-12T21:56:42.404Z,5.47
2018-02-12T21:59:09.831Z,7.10
2018-02-12T22:01:37.270Z,9.50
2018-02-12T22:04:04.700Z,6.10
2018-02-12T22:06:32.147Z,10.97
2018-02-12T22:09:00.342Z,7.10
2018-02-12T22:11:28.551Z,10.70
2018-02-12T22:13:56.751Z,7.17
2018-02-12T22:16:24.954Z,5.93
2018-02-12T22:18:53.155Z,6.43
2018-02-12T22:21:21.359Z,7.50
2018-02-12T22:23:48.792Z,5.90
2018-02-12T22:26:16.236Z,8.90
2018-02-12T22:28:43.667Z,7.30
2018-02-12T22:31:11.103Z,7.13
2018-02-12T22:33:38.535Z,6.40
2018-02-12T22:36:05.975Z,6.10
2018-02-12T22:38:33.410Z,5.77
2018-02-12T22:41:01.614Z,8.00
2018-02-12T22:43:29.046Z,9.87
2018-02-12T22:45:56.483Z,6.33
2018-02-12T22:48:23.923Z,11.93
2018-02-12T22:50:51.359Z,6.00
2018-02-12T22:53:18.795Z,5.80
2018-02-12T22:55:46.235Z,7.57
2018-02-12T22:58:13.672Z,7.00
2018-02-12T23:00:41.874Z,6.23
2018-02-12T23:03:10.073Z,8.40
2018-02-12T23:05:38.276Z,7.70
2018-02-12T23:08:06.471Z,7.83
2018-02-12T23:10:34.676Z,8.60
2018-02-12T23:13:02.872Z,8.63
2018-02-12T23:15:33.055Z,5.50
2018-02-12T23:18:00.482Z,7.30
2018-02-12T23:20:27.922Z,6.83
2018-02-12T23:22:55.359Z,8.00
2018-02-12T23:25:23.568Z,10.80
2018-02-12T23:27:51.004Z,9.73
2018-02-12T23:30:18.445Z,14.37
2018-02-12T23:32:45.884Z,8.67
2018-02-12T23:35:13.315Z,6.90
2018-02-12T23:37:40.764Z,7.17
2018-02-12T23:40:08.963Z,15.17
2018-02-12T23:42:37.166Z,6.50
2018-02-12T23:45:05.367Z,5.50
2018-02-12T23:47:32.806Z,8.00
2018-02-12T23:50:00.244Z,10.50
2018-02-12T23:52:27.682Z,6.00
2018-02-12T23:54:55.110Z,7.90
2018-02-12T23:57:22.566Z,5.43
2018-02-12T23:59:50.763Z,6.33
